KCXO/CXO METAR and TAF weather

Enter ICAO airport designator
Station Type Date Time Source
KCXO METAR 2020/02/20 23:53 UTC NOAA

KCXO 202353Z 35007G17KT 10SM OVC033 09/06 A3043 RMK AO2 RAB06E37 SLP305 P0000 60000 T00890056 10094 20078 53018


Station Type Date Time Source
KCXO Decoded METAR 2020/02/20 23:53 UTC NOAA

LONE STAR EXECUTIVE AIRPORT, TX, United States (KCXO) 30-21N 95-25W 75M
Feb 20, 2020 - 06:53 PM EST / 2020.02.20 2353 UTC
Wind: from the N (350 degrees) at 8 MPH (7 KT) gusting to 20 MPH (17 KT):0
Visibility: 10 mile(s):0
Sky conditions: overcast
Precipitation last hour: A trace
Temperature: 48.0 F (8.9 C)
Dew Point: 42.1 F (5.6 C)
Relative Humidity: 79%
Pressure (altimeter): 30.43 in. Hg (1030 hPa)
Pressure tendency: 0.05 inches (1.8 hPa) higher than three hours ago
ob: KCXO 202353Z 35007G17KT 10SM OVC033 09/06 A3043 RMK AO2 RAB06E37 SLP305 P0000 60000 T00890056 10094 20078 53018
cycle: 0

Station Type Date Time Source
KCXO TAF 2020/02/20 18:22 UTC NOAA

TAF KCXO 201720Z 2018/2118 01012G22KT P6SM VCSH OVC011
FM202100 36011G22KT P6SM OVC015
FM210000 01011G21KT P6SM SCT014 BKN050
FM210600 01007KT P6SM SCT250
FM211700 03007KT P6SM SKC

Example: see airport list